Time;durP1;ratioP1;P1;durP2;ratioP2;P2;SDS_P1;SDS_P2;PMS_P1;PMS_P2;Temp;Humidity;BMP_temperature;BMP_pressure;BME280_temperature;BME280_humidity;BME280_pressure;Samples;Min_cycle;Max_cycle;Signal;HPM_P1;HPM_P2
2022/12/26 00:00:27;;;;;;;2.27;1.17;;;9.00;99.90;;;;;;5037276;28;20178;-75
2022/12/26 00:02:52;;;;;;;2.87;1.47;;;9.10;99.90;;;;;;5032482;28;20189;-75
2022/12/26 00:05:18;;;;;;;2.27;1.40;;;9.10;99.90;;;;;;5030772;28;20182;-75
2022/12/26 00:07:43;;;;;;;2.60;1.40;;;9.00;99.90;;;;;;5019072;28;20302;-74
2022/12/26 00:10:09;;;;;;;3.40;1.77;;;9.00;99.90;;;;;;5030860;28;20900;-75
2022/12/26 00:12:34;;;;;;;2.47;1.40;;;9.00;99.90;;;;;;5033906;28;20190;-75
2022/12/26 00:15:00;;;;;;;3.20;1.90;;;9.00;99.90;;;;;;5042371;28;20562;-75
2022/12/26 00:17:26;;;;;;;3.70;1.60;;;9.00;99.90;;;;;;5036310;28;20193;-76
2022/12/26 00:19:51;;;;;;;2.90;1.30;;;8.90;99.90;;;;;;5031930;28;20743;-75
2022/12/26 00:22:17;;;;;;;3.00;1.90;;;9.00;99.90;;;;;;5033447;28;20186;-75
2022/12/26 00:24:43;;;;;;;3.53;1.63;;;9.00;99.90;;;;;;5037441;28;20185;-75
2022/12/26 00:27:08;;;;;;;1.77;1.07;;;9.00;99.90;;;;;;5030347;28;20190;-75
2022/12/26 00:29:34;;;;;;;2.90;1.60;;;9.10;99.90;;;;;;5036502;28;20191;-75
2022/12/26 00:31:59;;;;;;;2.67;1.30;;;9.10;99.90;;;;;;5027832;28;20733;-75
2022/12/26 00:34:25;;;;;;;3.43;1.17;;;9.10;99.90;;;;;;5045223;28;20194;-75
2022/12/26 00:36:50;;;;;;;3.70;1.77;;;9.10;99.90;;;;;;5037560;28;20198;-75
2022/12/26 00:39:16;;;;;;;2.33;1.30;;;9.10;99.90;;;;;;5036817;28;20213;-75
2022/12/26 00:41:42;;;;;;;2.67;1.43;;;9.10;99.90;;;;;;5031820;28;20221;-75
2022/12/26 00:44:07;;;;;;;2.27;1.20;;;9.10;99.90;;;;;;5051707;28;20642;-75
2022/12/26 00:46:33;;;;;;;3.90;1.23;;;9.20;99.90;;;;;;5039430;28;20665;-75
2022/12/26 00:48:59;;;;;;;4.67;2.30;;;9.20;99.90;;;;;;5040159;28;20198;-75
2022/12/26 00:51:25;;;;;;;2.43;1.30;;;9.20;99.90;;;;;;5031893;28;20178;-75
2022/12/26 00:53:50;;;;;;;1.77;0.97;;;9.10;99.90;;;;;;5035921;28;20221;-75
2022/12/26 00:56:16;;;;;;;3.10;1.20;;;9.10;99.90;;;;;;5030744;28;20191;-74
2022/12/26 00:58:42;;;;;;;3.73;1.37;;;9.00;99.90;;;;;;5042153;28;20281;-74
2022/12/26 01:01:09;;;;;;;2.23;1.23;;;9.00;99.90;;;;;;5029697;28;20193;-75
2022/12/26 01:03:35;;;;;;;1.60;1.00;;;9.00;99.90;;;;;;5035024;28;20201;-75
2022/12/26 01:06:02;;;;;;;1.97;1.20;;;9.00;99.90;;;;;;5034394;28;20441;-75
2022/12/26 01:08:28;;;;;;;3.27;1.20;;;9.00;99.90;;;;;;5030619;28;20514;-75
2022/12/26 01:10:53;;;;;;;2.70;1.23;;;9.10;99.90;;;;;;5037590;28;20464;-75
2022/12/26 01:13:19;;;;;;;3.20;1.47;;;9.00;99.90;;;;;;5026775;28;20285;-75
2022/12/26 01:15:52;;;;;;;1.83;1.23;;;9.00;99.90;;;;;;5038395;28;20197;-75
2022/12/26 01:18:19;;;;;;;2.20;1.10;;;9.00;99.90;;;;;;5031045;28;20570;-75
2022/12/26 01:20:45;;;;;;;2.23;1.23;;;9.10;99.90;;;;;;5039823;28;20440;-75
2022/12/26 01:23:10;;;;;;;3.67;1.30;;;9.10;99.90;;;;;;5039733;28;20412;-75
2022/12/26 01:25:38;;;;;;;2.60;1.30;;;9.20;99.90;;;;;;5037258;28;20443;-75
2022/12/26 01:28:03;;;;;;;2.27;1.30;;;9.20;99.90;;;;;;5047050;28;20195;-75
2022/12/26 01:30:29;;;;;;;1.90;1.10;;;9.20;99.90;;;;;;5040440;28;20447;-74
2022/12/26 01:32:55;;;;;;;3.17;1.30;;;9.30;99.90;;;;;;5038929;28;20696;-74
2022/12/26 01:35:21;;;;;;;1.80;1.07;;;9.30;99.90;;;;;;5036312;28;20646;-74
2022/12/26 01:37:46;;;;;;;3.07;1.50;;;9.30;99.90;;;;;;5041788;28;20471;-74
2022/12/26 01:40:12;;;;;;;2.53;1.40;;;9.40;99.90;;;;;;5038944;28;20205;-74
2022/12/26 01:42:40;;;;;;;4.50;1.80;;;9.30;99.90;;;;;;5042512;28;20532;-74
2022/12/26 01:45:23;;;;;;;1.77;1.17;;;9.40;99.90;;;;;;5027483;28;20194;-75
2022/12/26 01:47:53;;;;;;;4.63;1.83;;;9.30;99.90;;;;;;5024810;28;20424;-75
2022/12/26 01:50:43;;;;;;;3.60;1.83;;;9.30;99.90;;;;;;5026830;28;20439;-74
2022/12/26 01:53:47;;;;;;;2.67;1.60;;;9.30;99.90;;;;;;5032211;28;20416;-74
2022/12/26 01:56:19;;;;;;;3.10;1.23;;;9.30;99.90;;;;;;5023486;28;20479;-74
2022/12/26 01:59:04;;;;;;;2.93;1.30;;;9.30;99.90;;;;;;5035496;28;20487;-74
2022/12/26 02:01:32;;;;;;;6.47;1.17;;;9.20;99.90;;;;;;5028908;28;20462;-75
2022/12/26 02:06:49;;;;;;;2.90;1.53;;;9.30;99.90;;;;;;5022758;28;20840;-75
2022/12/26 02:09:15;;;;;;;2.33;1.20;;;9.20;99.90;;;;;;5031299;28;20455;-75
2022/12/26 02:11:49;;;;;;;2.63;1.10;;;9.30;99.90;;;;;;5029437;28;20454;-74
2022/12/26 02:14:15;;;;;;;1.50;0.90;;;9.30;99.90;;;;;;5036043;28;20821;-74
2022/12/26 02:16:42;;;;;;;2.07;1.10;;;9.30;99.90;;;;;;5026353;28;20452;-75
2022/12/26 02:19:21;;;;;;;2.70;1.00;;;9.40;99.90;;;;;;5036163;28;20198;-75
2022/12/26 02:22:05;;;;;;;2.13;1.03;;;9.40;99.90;;;;;;5042727;28;20433;-75
2022/12/26 02:25:06;;;;;;;3.90;1.17;;;9.40;99.90;;;;;;5051190;28;21054;-75
2022/12/26 02:27:38;;;;;;;3.30;1.20;;;9.40;99.90;;;;;;5040217;28;20411;-75
2022/12/26 02:30:28;;;;;;;3.53;1.27;;;9.30;99.90;;;;;;5034026;28;20501;-74
2022/12/26 02:33:13;;;;;;;1.80;1.10;;;9.30;99.90;;;;;;5036212;28;20793;-74
2022/12/26 02:36:16;;;;;;;5.47;1.67;;;9.30;99.90;;;;;;5032815;28;20456;-74
2022/12/26 02:38:54;;;;;;;2.50;1.20;;;9.30;99.90;;;;;;5041832;28;20558;-75
2022/12/26 02:41:46;;;;;;;2.53;1.17;;;9.30;99.90;;;;;;5019385;28;20934;-75
2022/12/26 02:47:31;;;;;;;2.20;1.27;;;9.30;99.90;;;;;;5040508;28;20492;-75
2022/12/26 03:14:06;;;;;;;2.20;0.97;;;9.60;99.90;;;;;;5012551;28;20437;-75
2022/12/26 03:19:18;;;;;;;4.03;1.10;;;9.50;99.90;;;;;;5011637;28;20477;-75
2022/12/26 03:21:46;;;;;;;4.47;1.70;;;9.60;99.90;;;;;;5021356;28;20803;-75
2022/12/26 03:24:14;;;;;;;4.90;1.50;;;9.60;99.90;;;;;;5027510;28;20564;-74
2022/12/26 03:26:48;;;;;;;2.70;1.20;;;9.50;99.90;;;;;;5022498;28;20496;-74
2022/12/26 03:32:08;;;;;;;2.40;1.40;;;9.50;99.90;;;;;;5018753;28;20489;-74
2022/12/26 03:34:39;;;;;;;2.63;1.40;;;9.40;99.90;;;;;;5032197;28;20443;-75
2022/12/26 03:37:11;;;;;;;7.47;2.10;;;9.40;99.90;;;;;;5015703;28;20463;-75
2022/12/26 04:19:24;;;;;;;2.23;1.10;;;9.10;99.90;;;;;;5008689;28;21021;-74
2022/12/26 04:45:09;;;;;;;3.37;1.90;;;9.10;99.90;;;;;;5027928;28;20419;-75
2022/12/26 04:47:35;;;;;;;1.97;1.10;;;9.20;99.90;;;;;;5023113;28;20430;-75
2022/12/26 04:50:11;;;;;;;2.00;1.20;;;9.20;99.90;;;;;;5026664;28;20432;-75
2022/12/26 04:52:58;;;;;;;2.87;1.20;;;9.20;99.90;;;;;;5035170;28;20615;-75
2022/12/26 04:55:29;;;;;;;4.67;1.20;;;9.20;99.90;;;;;;5013415;28;20457;-75
2022/12/26 04:57:55;;;;;;;2.77;1.20;;;9.20;99.90;;;;;;5021138;28;20425;-75
2022/12/26 05:00:23;;;;;;;2.33;1.60;;;9.20;99.90;;;;;;5031504;28;20470;-75
2022/12/26 05:11:26;;;;;;;3.57;1.43;;;9.10;99.90;;;;;;5018639;28;20445;-75
2022/12/26 05:13:54;;;;;;;5.30;2.23;;;9.10;99.90;;;;;;5024315;28;20943;-74
2022/12/26 05:30:04;;;;;;;2.70;1.00;;;9.00;99.90;;;;;;5017054;28;20445;-74
2022/12/26 05:35:14;;;;;;;1.83;1.27;;;9.00;99.90;;;;;;5021064;28;20425;-75
2022/12/26 05:37:40;;;;;;;2.97;1.10;;;9.00;99.90;;;;;;5015668;28;20414;-75
2022/12/26 05:40:06;;;;;;;2.53;1.30;;;9.10;99.90;;;;;;5022598;28;20616;-74
2022/12/26 05:42:32;;;;;;;2.77;1.40;;;9.00;99.90;;;;;;5024769;28;20186;-74
2022/12/26 05:44:57;;;;;;;3.30;1.30;;;9.00;99.90;;;;;;5021668;28;20483;-74
2022/12/26 05:47:23;;;;;;;4.43;1.40;;;9.00;99.90;;;;;;5016175;28;20689;-74
2022/12/26 05:49:48;;;;;;;5.10;1.57;;;9.00;99.90;;;;;;5014206;28;20261;-74
2022/12/26 05:52:14;;;;;;;4.80;1.60;;;9.10;99.90;;;;;;5014981;28;20548;-74
2022/12/26 05:54:39;;;;;;;3.00;1.47;;;9.10;99.90;;;;;;5026129;28;20179;-75
2022/12/26 05:57:05;;;;;;;2.73;1.30;;;9.00;99.90;;;;;;5010221;28;20194;-75
2022/12/26 05:59:31;;;;;;;2.00;1.10;;;9.10;99.90;;;;;;5004812;28;20599;-75
2022/12/26 06:01:56;;;;;;;4.43;1.03;;;9.10;99.90;;;;;;5016331;28;20175;-75
2022/12/26 06:04:22;;;;;;;3.17;1.53;;;9.20;99.90;;;;;;5012626;28;20179;-75
2022/12/26 06:06:47;;;;;;;3.23;1.33;;;9.20;99.90;;;;;;5027177;28;20229;-75
2022/12/26 06:09:13;;;;;;;2.57;1.30;;;9.20;99.90;;;;;;5016536;28;20187;-75
2022/12/26 06:11:38;;;;;;;2.23;1.20;;;9.30;99.90;;;;;;5007742;28;20624;-74
2022/12/26 06:14:04;;;;;;;2.37;1.60;;;9.20;99.90;;;;;;5029556;28;20178;-74
2022/12/26 06:16:30;;;;;;;2.37;1.43;;;9.20;99.90;;;;;;5020033;28;20265;-75
2022/12/26 06:18:55;;;;;;;3.40;1.60;;;9.20;99.90;;;;;;5029506;28;20190;-75
2022/12/26 06:21:21;;;;;;;3.83;1.03;;;9.20;99.90;;;;;;5013579;28;20218;-75
2022/12/26 06:23:48;;;;;;;2.57;1.13;;;9.10;99.90;;;;;;5012842;28;20278;-75
2022/12/26 06:26:14;;;;;;;1.80;0.97;;;9.20;99.90;;;;;;5017906;28;20190;-75
2022/12/26 06:28:42;;;;;;;3.83;1.10;;;9.20;99.90;;;;;;5020305;28;20433;-74
2022/12/26 06:31:11;;;;;;;3.37;1.17;;;9.30;99.90;;;;;;5015867;28;20449;-75
2022/12/26 06:33:37;;;;;;;3.03;1.70;;;9.30;99.90;;;;;;5025255;28;20421;-75
2022/12/26 06:36:09;;;;;;;3.53;1.57;;;9.30;99.90;;;;;;5033531;28;20516;-75
2022/12/26 06:38:35;;;;;;;1.53;0.80;;;9.30;99.90;;;;;;5015705;28;20238;-75
2022/12/26 06:41:03;;;;;;;2.80;1.30;;;9.40;99.90;;;;;;5012707;28;20885;-75
2022/12/26 06:43:28;;;;;;;7.60;2.03;;;9.40;99.90;;;;;;5013565;28;20438;-75
2022/12/26 06:45:55;;;;;;;2.93;1.13;;;9.40;99.90;;;;;;5025176;28;20420;-75
2022/12/26 06:48:21;;;;;;;3.50;1.60;;;9.40;99.90;;;;;;5018991;28;20175;-75
2022/12/26 06:50:47;;;;;;;2.30;1.00;;;9.50;99.90;;;;;;5025257;28;20422;-74
2022/12/26 06:53:12;;;;;;;4.23;1.57;;;9.50;99.90;;;;;;5009196;28;20217;-74
2022/12/26 06:55:38;;;;;;;2.73;1.30;;;9.50;99.90;;;;;;5010818;28;20202;-74
2022/12/26 06:58:03;;;;;;;2.87;1.53;;;9.40;99.90;;;;;;5016518;28;20683;-74
2022/12/26 07:00:29;;;;;;;2.80;1.47;;;9.50;99.90;;;;;;5013691;28;20207;-74
2022/12/26 07:02:55;;;;;;;1.83;0.97;;;9.60;99.90;;;;;;5020336;28;20186;-75
2022/12/26 07:05:20;;;;;;;2.83;1.20;;;9.60;99.90;;;;;;5012983;28;20230;-75
2022/12/26 07:07:53;;;;;;;1.60;1.00;;;9.60;99.90;;;;;;5020058;28;20191;-75
2022/12/26 07:10:19;;;;;;;2.40;1.60;;;9.50;99.90;;;;;;5015532;28;20540;-75
2022/12/26 07:12:46;;;;;;;3.97;1.37;;;9.60;99.90;;;;;;5017685;28;20442;-75
2022/12/26 07:15:12;;;;;;;2.00;1.10;;;9.50;99.90;;;;;;5012005;28;20434;-75
2022/12/26 07:17:37;;;;;;;2.33;1.20;;;9.60;99.90;;;;;;5011650;28;20841;-75
2022/12/26 07:20:04;;;;;;;2.30;1.07;;;9.50;99.90;;;;;;5015541;28;20199;-75
2022/12/26 07:22:30;;;;;;;5.10;2.00;;;9.50;99.90;;;;;;5022260;28;20186;-75
2022/12/26 07:24:55;;;;;;;3.67;1.97;;;9.50;99.90;;;;;;5014674;28;20453;-75
2022/12/26 07:27:21;;;;;;;3.77;2.53;;;9.60;99.90;;;;;;5010546;28;20218;-72
2022/12/26 07:29:46;;;;;;;6.10;3.03;;;9.50;99.90;;;;;;5013400;28;20589;-75
2022/12/26 07:32:12;;;;;;;3.93;1.93;;;9.50;99.90;;;;;;5012151;28;20194;-75
2022/12/26 07:34:38;;;;;;;4.10;2.20;;;9.50;99.90;;;;;;5010345;28;20269;-75
2022/12/26 07:37:03;;;;;;;3.60;1.60;;;9.50;99.90;;;;;;5018079;28;20187;-75
2022/12/26 07:39:29;;;;;;;4.70;2.40;;;9.50;99.90;;;;;;5013278;28;20663;-73
2022/12/26 07:41:57;;;;;;;2.13;0.97;;;9.40;99.90;;;;;;5011251;28;20201;-74
2022/12/26 07:44:25;;;;;;;2.53;1.43;;;9.50;99.90;;;;;;5010348;28;20183;-75
2022/12/26 07:46:51;;;;;;;3.40;1.60;;;9.50;99.90;;;;;;5012407;28;20417;-75
2022/12/26 07:49:16;;;;;;;5.20;1.73;;;9.50;99.90;;;;;;5015021;28;20442;-69
2022/12/26 07:51:42;;;;;;;3.13;0.97;;;9.50;99.90;;;;;;5014792;28;20210;-73
2022/12/26 07:54:09;;;;;;;2.47;1.27;;;9.50;99.90;;;;;;5020608;28;20209;-73
2022/12/26 07:56:34;;;;;;;2.70;1.20;;;9.50;99.90;;;;;;5008993;28;20191;-74
2022/12/26 07:59:00;;;;;;;2.90;1.33;;;9.50;99.90;;;;;;5005756;28;20569;-73
2022/12/26 08:01:27;;;;;;;4.30;1.23;;;9.50;99.90;;;;;;5028101;28;20179;-74
2022/12/26 08:03:53;;;;;;;3.87;1.27;;;9.50;99.90;;;;;;5015174;28;20186;-74
2022/12/26 08:06:19;;;;;;;5.13;1.57;;;9.40;99.90;;;;;;5016860;28;20771;-75
2022/12/26 08:08:45;;;;;;;4.63;1.33;;;9.40;99.90;;;;;;5015691;28;20558;-73
2022/12/26 08:11:16;;;;;;;3.40;1.10;;;9.40;99.90;;;;;;5008474;28;20830;-73
2022/12/26 08:13:42;;;;;;;2.50;1.33;;;9.40;99.90;;;;;;5013095;28;20414;-74
2022/12/26 08:16:10;;;;;;;5.00;1.53;;;9.30;99.90;;;;;;5011139;28;20779;-73
2022/12/26 08:18:37;;;;;;;3.60;1.60;;;9.20;99.90;;;;;;5006665;28;20206;-73
2022/12/26 08:21:02;;;;;;;2.07;1.50;;;9.10;99.90;;;;;;5012691;28;20774;-73
2022/12/26 08:23:28;;;;;;;4.17;1.30;;;9.10;99.90;;;;;;5012978;28;20417;-73
2022/12/26 08:25:54;;;;;;;4.33;1.60;;;9.10;99.90;;;;;;5013110;28;20206;-73
2022/12/26 08:28:19;;;;;;;2.30;1.37;;;9.10;99.90;;;;;;5012989;28;20643;-73
2022/12/26 08:30:45;;;;;;;3.67;1.73;;;9.10;99.90;;;;;;5012936;28;20195;-73
2022/12/26 08:33:12;;;;;;;2.33;1.20;;;9.00;99.90;;;;;;5012742;28;20638;-73
2022/12/26 08:35:38;;;;;;;3.60;1.73;;;9.00;99.90;;;;;;5013176;28;20178;-73
2022/12/26 08:38:04;;;;;;;6.40;2.07;;;9.00;99.90;;;;;;5013435;28;20406;-73
2022/12/26 08:40:30;;;;;;;3.27;2.00;;;9.00;99.90;;;;;;5024710;28;20469;-73
2022/12/26 08:42:55;;;;;;;5.77;2.10;;;9.00;99.90;;;;;;5012755;28;20195;-73
2022/12/26 08:45:22;;;;;;;3.77;1.77;;;9.00;99.90;;;;;;5013252;28;20172;-73
2022/12/26 08:47:48;;;;;;;4.63;2.43;;;8.90;99.90;;;;;;5015462;28;20633;-73
2022/12/26 08:50:14;;;;;;;2.83;1.43;;;8.90;99.90;;;;;;5013344;28;20422;-73
2022/12/26 08:52:41;;;;;;;7.20;2.10;;;8.80;99.90;;;;;;5011322;28;20691;-71
2022/12/26 08:55:07;;;;;;;3.20;2.10;;;8.80;99.90;;;;;;5011377;28;20484;-74
2022/12/26 08:57:32;;;;;;;2.90;1.40;;;8.90;99.90;;;;;;5006224;28;20447;-73
2022/12/26 08:59:58;;;;;;;3.33;1.50;;;8.80;99.90;;;;;;5011773;28;20496;-73
2022/12/26 09:02:24;;;;;;;2.40;1.70;;;8.80;99.90;;;;;;5012631;28;20186;-73
2022/12/26 09:04:50;;;;;;;3.97;2.47;;;8.80;99.90;;;;;;5015173;28;20175;-73
2022/12/26 09:07:16;;;;;;;3.63;1.60;;;8.80;99.90;;;;;;5015093;28;20926;-73
2022/12/26 09:09:42;;;;;;;3.60;2.13;;;8.80;99.90;;;;;;5016917;28;20662;-73
2022/12/26 09:12:08;;;;;;;5.27;2.27;;;8.80;99.90;;;;;;5014460;28;20442;-73
2022/12/26 09:14:34;;;;;;;4.83;2.73;;;8.70;99.90;;;;;;5010386;28;20818;-73
2022/12/26 09:17:00;;;;;;;5.50;2.00;;;8.80;99.90;;;;;;5015128;28;20266;-73
2022/12/26 09:19:28;;;;;;;3.90;2.40;;;8.70;99.90;;;;;;5016153;28;20262;-73
2022/12/26 09:22:49;;;;;;;4.13;1.60;;;8.70;99.90;;;;;;5017383;28;20171;-72
2022/12/26 09:24:40;;;;;;;4.97;2.40;;;8.70;99.90;;;;;;5015696;28;20528;-73
2022/12/26 09:27:06;;;;;;;3.20;2.17;;;8.70;99.90;;;;;;5014304;28;20504;-73
2022/12/26 09:29:31;;;;;;;6.43;2.30;;;8.70;99.90;;;;;;5021168;28;20297;-72
2022/12/26 09:31:57;;;;;;;3.50;1.73;;;8.60;99.90;;;;;;5013960;28;20186;-73
2022/12/26 09:34:22;;;;;;;5.50;2.80;;;8.60;99.90;;;;;;5009066;28;20191;-71
2022/12/26 09:36:48;;;;;;;4.60;2.50;;;8.60;99.90;;;;;;5010971;28;20182;-72
2022/12/26 09:39:13;;;;;;;6.07;2.73;;;8.60;99.90;;;;;;5017829;28;21050;-71
2022/12/26 09:41:48;;;;;;;3.80;2.10;;;8.60;99.90;;;;;;5004826;28;20242;-72
2022/12/26 09:44:35;;;;;;;4.43;2.43;;;8.60;99.90;;;;;;5011963;28;20285;-72
2022/12/26 09:47:29;;;;;;;3.60;2.10;;;8.60;99.90;;;;;;5012743;28;20833;-72
2022/12/26 09:50:10;;;;;;;3.87;1.80;;;8.60;99.90;;;;;;5008444;28;20923;-68
2022/12/26 09:52:41;;;;;;;6.27;2.90;;;8.60;99.90;;;;;;5014629;28;20426;-74
2022/12/26 09:55:22;;;;;;;4.40;2.47;;;8.60;99.90;;;;;;5009040;28;20996;-70
2022/12/26 09:57:50;;;;;;;6.80;3.67;;;8.60;99.90;;;;;;5013485;28;20465;-72
2022/12/26 10:00:24;;;;;;;4.90;2.50;;;8.60;99.90;;;;;;5012298;28;20994;-71
2022/12/26 10:02:53;;;;;;;3.47;2.00;;;8.60;99.90;;;;;;5013460;28;20421;-70
2022/12/26 10:05:25;;;;;;;4.67;2.73;;;8.60;99.90;;;;;;5013554;28;20876;-69
2022/12/26 10:08:05;;;;;;;7.27;3.67;;;8.70;99.90;;;;;;5008938;28;20899;-72
2022/12/26 10:11:02;;;;;;;5.30;2.23;;;8.70;99.90;;;;;;5004710;28;20946;-72
2022/12/26 10:13:31;;;;;;;7.87;3.10;;;8.60;99.90;;;;;;5015981;28;20525;-72
2022/12/26 10:16:10;;;;;;;4.00;2.33;;;8.60;99.90;;;;;;5010230;28;20445;-72
2022/12/26 10:18:55;;;;;;;5.40;2.97;;;8.60;99.90;;;;;;5004406;28;20472;-76
2022/12/26 10:21:45;;;;;;;5.00;3.13;;;8.60;99.90;;;;;;5012173;28;20523;-73
2022/12/26 10:24:17;;;;;;;7.10;4.03;;;8.60;99.90;;;;;;5012169;28;20422;-77
2022/12/26 10:26:48;;;;;;;8.00;3.00;;;8.50;99.90;;;;;;5021336;28;20409;-76
2022/12/26 10:29:30;;;;;;;6.97;3.33;;;8.50;99.90;;;;;;5009237;28;20434;-75
2022/12/26 10:31:57;;;;;;;5.07;2.40;;;8.60;99.90;;;;;;5004287;28;20493;-75
2022/12/26 10:34:44;;;;;;;6.73;3.03;;;8.50;99.90;;;;;;5013743;28;20833;-75
2022/12/26 10:37:28;;;;;;;5.97;3.63;;;8.50;99.90;;;;;;5026680;28;20421;-75
2022/12/26 10:40:21;;;;;;;9.00;3.73;;;8.50;99.90;;;;;;5031725;28;20452;-75
2022/12/26 10:43:03;;;;;;;5.77;3.10;;;8.60;99.90;;;;;;5031482;28;20961;-74
2022/12/26 10:45:46;;;;;;;7.13;2.80;;;8.60;99.90;;;;;;5018064;28;20495;-74
2022/12/26 10:48:13;;;;;;;8.63;3.87;;;8.70;99.90;;;;;;5032375;28;20754;-75
2022/12/26 10:50:45;;;;;;;3.57;2.30;;;8.70;99.90;;;;;;5028371;28;20429;-75
2022/12/26 10:53:12;;;;;;;2.37;1.57;;;8.80;99.90;;;;;;5024066;28;20546;-75
2022/12/26 10:55:37;;;;;;;5.03;2.23;;;8.80;99.90;;;;;;5020038;28;21125;-75
2022/12/26 10:58:23;;;;;;;2.53;1.93;;;8.80;99.90;;;;;;5020892;28;20418;-75
2022/12/26 11:00:49;;;;;;;2.50;1.47;;;8.80;99.90;;;;;;5024863;28;20179;-75
2022/12/26 11:03:17;;;;;;;4.47;1.97;;;8.80;99.90;;;;;;5016317;28;20973;-75
2022/12/26 11:05:49;;;;;;;2.43;1.20;;;8.80;99.90;;;;;;5016148;28;20174;-75
2022/12/26 11:09:00;;;;;;;2.43;1.40;;;8.80;99.90;;;;;;5019680;28;20414;-75
2022/12/26 11:11:47;;;;;;;3.10;1.53;;;8.80;99.90;;;;;;5020546;28;20858;-75
2022/12/26 11:14:35;;;;;;;3.47;1.37;;;8.90;99.90;;;;;;5009587;28;20417;-75
2022/12/26 11:17:06;;;;;;;9.23;2.50;;;8.90;99.90;;;;;;5017147;28;20902;-75
2022/12/26 11:19:38;;;;;;;6.60;1.97;;;8.90;99.90;;;;;;5027583;28;20467;-75
2022/12/26 11:22:22;;;;;;;5.03;2.20;;;9.00;99.90;;;;;;5021531;28;20949;-75
2022/12/26 11:25:08;;;;;;;4.67;1.53;;;9.00;99.90;;;;;;5031984;28;20898;-75
2022/12/26 11:27:39;;;;;;;2.63;0.93;;;9.00;99.90;;;;;;5032073;28;21115;-75
2022/12/26 11:30:14;;;;;;;2.90;1.40;;;8.90;99.90;;;;;;5030498;28;20401;-74
2022/12/26 11:32:42;;;;;;;1.73;0.73;;;8.90;99.90;;;;;;5031651;28;20423;-74
2022/12/26 11:35:22;;;;;;;1.60;0.97;;;8.90;99.90;;;;;;5031913;28;20507;-74
2022/12/26 11:37:55;;;;;;;1.83;1.10;;;8.80;99.90;;;;;;5031837;28;20413;-74
2022/12/26 11:40:35;;;;;;;2.17;1.20;;;8.80;99.90;;;;;;5031730;28;20452;-74
2022/12/26 11:43:05;;;;;;;2.33;1.20;;;8.80;99.90;;;;;;5028308;28;20413;-74
2022/12/26 11:45:35;;;;;;;1.87;1.10;;;8.80;99.90;;;;;;5031268;28;20424;-74
2022/12/26 11:48:01;;;;;;;1.87;1.33;;;8.80;99.90;;;;;;5032025;28;20412;-74
2022/12/26 11:50:29;;;;;;;2.30;0.90;;;8.70;99.90;;;;;;5031819;28;20417;-74
2022/12/26 11:52:54;;;;;;;2.40;1.30;;;8.70;99.90;;;;;;5030945;28;20424;-74
2022/12/26 11:55:36;;;;;;;3.27;2.00;;;8.70;99.90;;;;;;5031284;28;20455;-74
2022/12/26 11:58:08;;;;;;;3.70;2.00;;;8.70;99.90;;;;;;5020157;28;20175;-74
2022/12/26 12:00:40;;;;;;;3.23;1.97;;;8.80;99.90;;;;;;5030599;28;20480;-74
2022/12/26 12:03:14;;;;;;;5.20;1.60;;;8.80;99.90;;;;;;5028754;28;20421;-74
2022/12/26 12:05:57;;;;;;;4.80;1.47;;;8.80;99.90;;;;;;5031789;28;20405;-74
2022/12/26 12:08:25;;;;;;;1.93;1.00;;;8.80;99.90;;;;;;5031491;28;20776;-74
2022/12/26 12:11:12;;;;;;;2.27;1.43;;;8.80;99.90;;;;;;5021240;28;20428;-74
2022/12/26 12:14:28;;;;;;;1.90;1.13;;;8.80;99.90;;;;;;5014269;28;20420;-74
2022/12/26 12:17:12;;;;;;;2.57;1.27;;;8.90;99.90;;;;;;5000654;28;20516;-74
2022/12/26 12:19:50;;;;;;;1.40;0.70;;;8.80;99.90;;;;;;5022757;28;20459;-74
2022/12/26 12:22:22;;;;;;;6.27;1.90;;;8.80;99.90;;;;;;5012007;28;20492;-74
2022/12/26 12:24:53;;;;;;;2.97;1.77;;;8.80;99.90;;;;;;5031151;28;21088;-74
2022/12/26 12:27:30;;;;;;;1.83;0.60;;;8.80;99.90;;;;;;5019451;28;20535;-74
2022/12/26 12:30:17;;;;;;;1.53;0.73;;;8.70;99.90;;;;;;5004376;28;20961;-74
2022/12/26 12:32:51;;;;;;;1.20;0.50;;;8.70;99.90;;;;;;5030728;28;20464;-74
2022/12/26 12:35:24;;;;;;;1.20;0.60;;;8.70;99.90;;;;;;5031300;28;20490;-74
2022/12/26 12:38:05;;;;;;;2.27;0.67;;;8.70;99.90;;;;;;5029684;28;20735;-74
2022/12/26 12:40:41;;;;;;;1.93;0.87;;;8.60;99.90;;;;;;5034102;28;20465;-74
2022/12/26 12:43:17;;;;;;;1.50;0.70;;;8.70;99.90;;;;;;5030965;28;20417;-74
2022/12/26 12:45:57;;;;;;;1.50;0.90;;;8.70;99.90;;;;;;5034712;28;20435;-74
2022/12/26 12:48:47;;;;;;;1.30;0.63;;;8.70;99.90;;;;;;5035438;28;20546;-74
2022/12/26 12:51:16;;;;;;;1.20;0.50;;;8.70;99.90;;;;;;5034831;28;20413;-74
2022/12/26 12:53:45;;;;;;;1.30;0.70;;;8.70;99.90;;;;;;5034502;28;20447;-74
2022/12/26 12:56:46;;;;;;;1.87;0.77;;;8.70;99.90;;;;;;5034784;28;20481;-73
2022/12/26 12:59:36;;;;;;;1.10;0.50;;;8.70;99.90;;;;;;4995061;28;20514;-74
2022/12/26 13:02:09;;;;;;;2.93;0.87;;;8.70;99.90;;;;;;5030131;28;20425;-74
2022/12/26 13:04:43;;;;;;;1.93;0.70;;;8.70;99.90;;;;;;5034653;28;20417;-74
2022/12/26 13:07:12;;;;;;;1.70;0.97;;;8.70;99.90;;;;;;5034715;28;20424;-74
2022/12/26 13:09:46;;;;;;;1.37;0.53;;;8.80;99.90;;;;;;5034326;28;20445;-74
2022/12/26 13:12:27;;;;;;;4.33;1.07;;;8.70;99.90;;;;;;5029420;28;20921;-74
2022/12/26 13:14:56;;;;;;;1.87;0.80;;;8.70;99.90;;;;;;5014262;28;20414;-74
2022/12/26 13:17:42;;;;;;;3.00;0.97;;;8.70;99.90;;;;;;5022865;28;20418;-74
2022/12/26 13:20:16;;;;;;;1.67;0.80;;;8.70;99.90;;;;;;5005968;28;20457;-75
2022/12/26 13:25:47;;;;;;;1.20;0.60;;;8.70;99.90;;;;;;5034546;28;20428;-75
2022/12/26 13:28:20;;;;;;;1.40;0.80;;;8.60;99.90;;;;;;5033685;28;20459;-75
2022/12/26 13:30:52;;;;;;;1.70;0.83;;;8.70;99.90;;;;;;5033887;28;20429;-75
2022/12/26 13:33:17;;;;;;;3.20;1.40;;;8.70;99.90;;;;;;5034357;28;20413;-75
2022/12/26 13:35:58;;;;;;;4.60;1.30;;;8.70;99.90;;;;;;5033562;28;20780;-75
2022/12/26 13:38:45;;;;;;;2.40;1.10;;;8.70;99.90;;;;;;5034282;28;20178;-75
2022/12/26 13:44:26;;;;;;;3.80;1.30;;;8.80;99.90;;;;;;5030729;28;20423;-75
2022/12/26 13:46:51;;;;;;;3.90;1.20;;;8.80;99.90;;;;;;5034195;28;20448;-75
2022/12/26 13:49:27;;;;;;;1.33;0.73;;;8.80;99.90;;;;;;5033807;28;20461;-75
2022/12/26 13:51:56;;;;;;;2.37;1.10;;;8.80;99.90;;;;;;5031751;28;20178;-75
2022/12/26 13:54:24;;;;;;;3.43;1.53;;;8.80;99.90;;;;;;5033885;28;20413;-75
2022/12/26 13:57:16;;;;;;;1.80;1.00;;;8.80;99.90;;;;;;5031541;28;20441;-75
2022/12/26 13:59:46;;;;;;;2.40;1.00;;;8.80;99.90;;;;;;5013663;28;20901;-75
2022/12/26 14:02:46;;;;;;;2.17;1.17;;;8.80;99.90;;;;;;5028849;28;20923;-74
2022/12/26 14:05:31;;;;;;;2.90;1.37;;;8.80;99.90;;;;;;5033641;28;20417;-74
2022/12/26 14:08:20;;;;;;;3.20;1.03;;;8.80;99.90;;;;;;5033125;28;20421;-74
2022/12/26 14:11:14;;;;;;;1.40;0.77;;;8.80;99.90;;;;;;5013129;28;20425;-74
2022/12/26 14:13:39;;;;;;;1.80;1.00;;;8.80;99.90;;;;;;5022856;28;20414;-74
2022/12/26 14:16:43;;;;;;;1.60;0.90;;;8.70;99.90;;;;;;5013521;28;20891;-74
2022/12/26 14:19:35;;;;;;;3.30;1.07;;;8.80;99.90;;;;;;5014387;28;20218;-74
2022/12/26 14:22:21;;;;;;;2.83;1.13;;;8.80;99.90;;;;;;5008692;28;20420;-74
2022/12/26 14:24:53;;;;;;;2.67;1.03;;;8.80;99.90;;;;;;5031879;28;20504;-74
2022/12/26 14:27:24;;;;;;;1.30;0.70;;;8.80;99.90;;;;;;5033491;28;20805;-74
2022/12/26 14:30:24;;;;;;;1.50;0.70;;;8.80;99.90;;;;;;5032221;28;20414;-75
2022/12/26 14:33:20;;;;;;;2.33;0.83;;;8.80;99.90;;;;;;5027666;28;20429;-74
2022/12/26 14:36:04;;;;;;;1.30;0.63;;;8.80;99.90;;;;;;5002414;28;20467;-74
2022/12/26 14:38:44;;;;;;;1.30;0.70;;;8.80;99.90;;;;;;5032760;28;20416;-74
2022/12/26 14:44:36;;;;;;;1.50;0.63;;;8.70;99.90;;;;;;5029714;28;20758;-74
2022/12/26 14:47:04;;;;;;;1.60;0.60;;;8.70;99.90;;;;;;5032294;28;20512;-74
2022/12/26 14:49:29;;;;;;;2.10;0.73;;;8.70;99.90;;;;;;5033146;28;20417;-74
2022/12/26 14:52:24;;;;;;;1.37;0.70;;;8.70;99.90;;;;;;5031356;28;20476;-74
2022/12/26 14:54:51;;;;;;;1.20;0.53;;;8.60;99.90;;;;;;5032550;28;20194;-74
2022/12/26 14:57:38;;;;;;;1.70;0.87;;;8.60;99.90;;;;;;5026900;28;20441;-74
2022/12/26 15:00:19;;;;;;;1.20;0.60;;;8.60;99.90;;;;;;5027647;28;20456;-74
2022/12/26 15:03:06;;;;;;;1.17;0.50;;;8.60;99.90;;;;;;5031876;28;20428;-74
2022/12/26 15:05:42;;;;;;;1.40;0.60;;;8.50;99.90;;;;;;5007154;28;20420;-74
2022/12/26 15:08:49;;;;;;;1.30;0.67;;;8.60;99.90;;;;;;5032203;28;20420;-74
2022/12/26 15:11:24;;;;;;;1.50;0.60;;;8.60;99.90;;;;;;5032690;28;21251;-74
2022/12/26 15:14:07;;;;;;;1.40;0.67;;;8.50;99.90;;;;;;5014017;28;20425;-74
2022/12/26 15:16:44;;;;;;;2.40;1.13;;;8.50;99.90;;;;;;5014923;28;20421;-74
2022/12/26 15:19:33;;;;;;;1.60;0.83;;;8.50;99.90;;;;;;5032144;28;20457;-74
2022/12/26 15:22:32;;;;;;;2.03;0.80;;;8.50;99.90;;;;;;5021768;28;20428;-74
2022/12/26 15:25:09;;;;;;;1.40;0.80;;;8.50;99.90;;;;;;5032077;28;20421;-73
2022/12/26 15:28:02;;;;;;;1.20;0.57;;;8.50;99.90;;;;;;5019068;28;20402;-73
2022/12/26 15:30:49;;;;;;;1.90;0.90;;;8.50;99.90;;;;;;5030738;28;20789;-74
2022/12/26 15:33:22;;;;;;;1.77;0.70;;;8.50;99.90;;;;;;5031799;28;20433;-74
2022/12/26 15:36:20;;;;;;;1.20;0.60;;;8.40;99.90;;;;;;5032173;28;20504;-74
2022/12/26 15:39:12;;;;;;;2.33;0.80;;;8.40;99.90;;;;;;5031296;28;20420;-74